Time;durP1;ratioP1;P1;durP2;ratioP2;P2;SDS_P1;SDS_P2;PMS_P1;PMS_P2;Temp;Humidity;BMP_temperature;BMP_pressure;BME280_temperature;BME280_humidity;BME280_pressure;Samples;Min_cycle;Max_cycle;Signal;HPM_P1;HPM_P2
2021/09/15 00:00:34;;;;;;;99.82;47.10;;;;;;;15.11;100.00;101231.19;5051742;28;20033;-72
2021/09/15 00:02:59;;;;;;;90.40;44.40;;;;;;;15.08;100.00;101216.25;5052207;28;20065;-72
2021/09/15 00:05:25;;;;;;;99.07;47.38;;;;;;;15.05;100.00;101223.75;5051827;28;20120;-72
2021/09/15 00:07:50;;;;;;;112.22;50.17;;;;;;;15.05;100.00;101219.25;5052588;28;20112;-72
2021/09/15 00:10:16;;;;;;;98.50;48.42;;;;;;;15.09;100.00;101220.63;5052266;28;20420;-72
2021/09/15 00:12:41;;;;;;;105.72;49.13;;;;;;;15.15;100.00;101211.94;5051620;28;20438;-72
2021/09/15 00:15:08;;;;;;;116.47;52.38;;;;;;;15.22;100.00;101220.16;5054615;28;20037;-72
2021/09/15 00:17:33;;;;;;;126.13;55.28;;;;;;;15.29;100.00;101221.19;5054137;28;20090;-72
2021/09/15 00:19:58;;;;;;;124.47;54.63;;;;;;;15.38;100.00;101213.22;5056242;28;20427;-72
2021/09/15 00:22:24;;;;;;;152.80;61.20;;;;;;;15.48;100.00;101219.25;5055418;28;20036;-73
2021/09/15 00:24:49;;;;;;;144.18;63.65;;;;;;;15.57;100.00;101214.75;5056370;28;20029;-72
2021/09/15 00:27:15;;;;;;;131.73;57.95;;;;;;;15.63;100.00;101206.06;5056103;28;20064;-72
2021/09/15 00:29:41;;;;;;;133.02;57.03;;;;;;;15.69;100.00;101208.13;5055120;28;20029;-71
2021/09/15 00:32:06;;;;;;;128.52;55.42;;;;;;;15.71;100.00;101206.09;5056110;28;20051;-72
2021/09/15 00:34:32;;;;;;;118.82;53.28;;;;;;;15.69;100.00;101203.59;5055598;28;20390;-72
2021/09/15 00:36:57;;;;;;;127.40;56.63;;;;;;;15.63;100.00;101209.59;5055831;28;20072;-72
2021/09/15 00:39:24;;;;;;;110.03;50.92;;;;;;;15.56;100.00;101208.56;5055308;28;20384;-73
2021/09/15 00:41:49;;;;;;;127.22;53.35;;;;;;;15.49;100.00;101219.09;5055698;28;20033;-72
2021/09/15 00:44:15;;;;;;;135.07;57.33;;;;;;;15.44;100.00;101207.19;5055754;28;20032;-72
2021/09/15 00:46:41;;;;;;;211.55;79.15;;;;;;;15.49;100.00;101207.53;5055069;28;20027;-72
2021/09/15 00:49:08;;;;;;;183.30;71.53;;;;;;;15.54;100.00;101209.72;5055580;28;20064;-72
2021/09/15 00:51:36;;;;;;;148.32;59.78;;;;;;;15.52;100.00;101210.75;5054990;28;20056;-72
2021/09/15 00:54:04;;;;;;;140.60;60.22;;;;;;;15.46;100.00;101216.75;5055537;28;20033;-71
2021/09/15 00:56:30;;;;;;;142.85;57.33;;;;;;;15.40;100.00;101205.84;5054872;28;20021;-72
2021/09/15 00:58:55;;;;;;;144.07;60.53;;;;;;;15.36;100.00;101207.16;5055155;28;20033;-72
2021/09/15 01:01:21;;;;;;;144.73;60.33;;;;;;;15.31;100.00;101211.16;5055461;28;20033;-72
2021/09/15 01:03:46;;;;;;;168.93;68.82;;;;;;;15.31;100.00;101207.63;5054359;28;20053;-72
2021/09/15 01:06:12;;;;;;;179.88;71.57;;;;;;;15.29;100.00;101201.59;5054071;28;20045;-72
2021/09/15 01:08:38;;;;;;;177.05;71.22;;;;;;;15.24;100.00;101196.72;5054645;28;20419;-72
2021/09/15 01:11:03;;;;;;;177.02;70.38;;;;;;;15.20;100.00;101194.50;5055192;28;20121;-72
2021/09/15 01:13:30;;;;;;;168.68;67.10;;;;;;;15.16;100.00;101194.00;5054629;28;20064;-72
2021/09/15 01:15:56;;;;;;;157.63;61.47;;;;;;;15.14;100.00;101206.72;5053935;28;20473;-72
2021/09/15 01:18:21;;;;;;;203.20;77.88;;;;;;;15.11;100.00;101194.50;5055088;28;20037;-72
2021/09/15 01:20:47;;;;;;;187.52;72.20;;;;;;;15.08;100.00;101205.53;5054353;28;20337;-72
2021/09/15 01:23:12;;;;;;;184.68;70.18;;;;;;;15.07;100.00;101205.69;5055051;28;20036;-72
2021/09/15 01:25:39;;;;;;;200.73;72.90;;;;;;;15.06;100.00;101206.69;5054064;28;20029;-72
2021/09/15 01:28:05;;;;;;;194.80;72.82;;;;;;;15.05;100.00;101202.31;5054641;28;20041;-72
2021/09/15 01:30:31;;;;;;;178.35;66.57;;;;;;;15.05;100.00;101199.63;5054231;28;20044;-72
2021/09/15 01:32:57;;;;;;;198.35;73.60;;;;;;;15.05;100.00;101196.94;5054621;28;20032;-72
2021/09/15 01:35:22;;;;;;;207.00;78.60;;;;;;;15.06;100.00;101194.13;5054803;28;20366;-72
2021/09/15 01:37:48;;;;;;;214.98;77.97;;;;;;;15.07;100.00;101190.44;5054171;28;20029;-72
2021/09/15 01:40:14;;;;;;;244.40;86.47;;;;;;;15.04;100.00;101188.09;5054782;28;20040;-72
2021/09/15 01:42:39;;;;;;;222.65;76.88;;;;;;;15.01;100.00;101191.09;5052856;28;20449;-72
2021/09/15 01:45:07;;;;;;;190.23;71.72;;;;;;;14.95;100.00;101187.19;5054761;28;20044;-72
2021/09/15 01:47:32;;;;;;;187.40;70.15;;;;;;;14.91;100.00;101187.69;5054095;28;20509;-72
2021/09/15 01:49:57;;;;;;;184.35;70.07;;;;;;;14.83;100.00;101185.78;5055345;28;20048;-72
2021/09/15 01:52:23;;;;;;;183.48;70.45;;;;;;;14.76;100.00;101179.38;5054660;28;20036;-72
2021/09/15 01:54:48;;;;;;;197.98;72.97;;;;;;;14.71;100.00;101187.06;5053919;28;20037;-72
2021/09/15 01:57:14;;;;;;;185.98;70.45;;;;;;;14.66;100.00;101190.22;5054320;28;20033;-72
2021/09/15 01:59:40;;;;;;;181.02;67.05;;;;;;;14.58;100.00;101185.59;5053966;28;20041;-72
2021/09/15 02:02:05;;;;;;;186.45;69.07;;;;;;;14.53;100.00;101187.09;5054889;28;20378;-72
2021/09/15 02:04:31;;;;;;;208.55;73.50;;;;;;;14.52;100.00;101183.56;5054339;28;20448;-72
2021/09/15 02:06:56;;;;;;;199.38;72.53;;;;;;;14.52;100.00;101188.06;5052301;28;20025;-72
2021/09/15 02:09:22;;;;;;;213.30;74.95;;;;;;;14.52;100.00;101178.19;5054216;28;20056;-71
2021/09/15 02:11:48;;;;;;;208.63;71.45;;;;;;;14.49;100.00;101191.06;5053428;28;20037;-72
2021/09/15 02:14:13;;;;;;;183.10;66.00;;;;;;;14.44;100.00;101181.66;5054153;28;20453;-72
2021/09/15 02:16:38;;;;;;;188.50;69.55;;;;;;;14.43;100.00;101187.16;5053194;28;20464;-72
2021/09/15 02:19:04;;;;;;;210.82;74.00;;;;;;;14.41;100.00;101187.31;5053956;28;20032;-72
2021/09/15 02:21:29;;;;;;;203.10;72.72;;;;;;;14.40;100.00;101179.44;5053723;28;20044;-71
2021/09/15 02:23:56;;;;;;;178.02;65.32;;;;;;;14.35;100.00;101182.59;5053427;28;20018;-72
2021/09/15 02:26:21;;;;;;;205.13;70.57;;;;;;;14.30;100.00;101184.88;5053790;28;20021;-72
2021/09/15 02:28:46;;;;;;;218.50;75.57;;;;;;;14.28;100.00;101189.56;5052760;28;20496;-72
2021/09/15 02:31:12;;;;;;;215.43;73.90;;;;;;;14.25;100.00;101185.34;5053477;28;20029;-72
2021/09/15 02:33:38;;;;;;;201.43;70.25;;;;;;;14.22;100.00;101183.00;5053105;28;20450;-72
2021/09/15 02:36:03;;;;;;;180.55;66.43;;;;;;;14.18;100.00;101188.81;5053274;28;20363;-71
2021/09/15 02:38:29;;;;;;;170.02;62.17;;;;;;;14.11;100.00;101183.25;5053205;28;20120;-71
2021/09/15 02:40:55;;;;;;;162.75;61.15;;;;;;;14.06;100.00;101186.38;5052822;28;20029;-72
2021/09/15 02:43:20;;;;;;;168.70;61.33;;;;;;;14.04;100.00;101185.69;5053412;28;20036;-71
2021/09/15 02:45:45;;;;;;;166.52;60.65;;;;;;;14.01;100.00;101179.81;5052861;28;20513;-71
2021/09/15 02:48:11;;;;;;;192.75;67.53;;;;;;;13.97;100.00;101179.25;5053569;28;20465;-70
2021/09/15 02:50:36;;;;;;;173.07;63.55;;;;;;;13.96;100.00;101177.59;5053384;28;20044;-71
2021/09/15 02:53:02;;;;;;;173.52;61.83;;;;;;;13.94;100.00;101179.56;5052977;28;20389;-71
2021/09/15 02:55:27;;;;;;;177.15;64.60;;;;;;;13.91;100.00;101171.84;5052839;28;20086;-71
2021/09/15 02:57:53;;;;;;;185.70;64.82;;;;;;;13.89;100.00;101166.66;5052205;28;20116;-71
2021/09/15 03:00:18;;;;;;;170.80;60.67;;;;;;;13.91;100.00;101166.50;5051855;28;20040;-71
2021/09/15 03:02:43;;;;;;;210.93;71.15;;;;;;;13.95;100.00;101165.19;5051223;28;20033;-71
2021/09/15 03:05:10;;;;;;;195.57;67.57;;;;;;;13.97;100.00;101163.19;5051765;28;20060;-71
2021/09/15 03:07:35;;;;;;;213.15;71.47;;;;;;;13.99;100.00;101165.72;5053006;28;20033;-71
2021/09/15 03:10:02;;;;;;;231.45;75.28;;;;;;;14.03;100.00;101167.09;5052319;28;20100;-71
2021/09/15 03:12:28;;;;;;;222.50;72.57;;;;;;;14.06;100.00;101166.78;5052839;28;20056;-71
2021/09/15 03:14:53;;;;;;;203.32;70.22;;;;;;;14.08;100.00;101154.94;5051957;28;20453;-72
2021/09/15 03:17:18;;;;;;;215.48;72.40;;;;;;;14.12;100.00;101158.16;5052785;28;20035;-71
2021/09/15 03:19:44;;;;;;;201.98;67.03;;;;;;;14.11;100.00;101162.66;5051898;28;20128;-72
2021/09/15 03:22:09;;;;;;;209.35;69.60;;;;;;;14.06;100.00;101164.97;5052582;28;20474;-72
2021/09/15 03:24:34;;;;;;;223.73;73.18;;;;;;;14.03;100.00;101151.06;5052821;28;20366;-71
2021/09/15 03:27:03;;;;;;;207.50;69.70;;;;;;;13.98;100.00;101146.16;5051934;28;20032;-71
2021/09/15 03:29:30;;;;;;;212.27;69.05;;;;;;;13.93;100.00;101143.97;5052851;28;20041;-71
2021/09/15 03:31:55;;;;;;;205.15;68.45;;;;;;;13.90;100.00;101138.09;5050855;28;20037;-71
2021/09/15 03:34:20;;;;;;;218.07;75.18;;;;;;;13.87;100.00;101136.56;5052411;28;20102;-71
2021/09/15 03:36:46;;;;;;;206.90;70.47;;;;;;;13.86;100.00;101134.84;5052022;28;20037;-71
2021/09/15 03:39:14;;;;;;;216.93;70.30;;;;;;;13.87;100.00;101133.88;5051337;28;20033;-71
2021/09/15 03:41:39;;;;;;;251.20;80.05;;;;;;;13.87;100.00;101136.56;5052398;28;20119;-71
2021/09/15 03:44:04;;;;;;;249.02;82.38;;;;;;;13.87;100.00;101139.22;5051924;28;20116;-71
2021/09/15 03:46:30;;;;;;;227.27;75.05;;;;;;;13.84;100.00;101136.84;5052164;28;20390;-71
2021/09/15 03:48:55;;;;;;;220.80;72.22;;;;;;;13.83;100.00;101148.53;5051736;28;20029;-71
2021/09/15 03:51:20;;;;;;;264.10;84.55;;;;;;;13.85;100.00;101145.72;5052516;28;20449;-71
2021/09/15 03:53:46;;;;;;;247.05;80.30;;;;;;;13.90;100.00;101151.47;5050592;28;20405;-71
2021/09/15 03:56:11;;;;;;;231.40;76.28;;;;;;;13.92;100.00;101155.63;5052061;28;20029;-71
2021/09/15 03:58:36;;;;;;;246.98;80.40;;;;;;;13.93;100.00;101160.00;5052864;28;20453;-71
2021/09/15 04:01:02;;;;;;;275.85;87.90;;;;;;;13.93;100.00;101157.34;5051749;28;20523;-71
2021/09/15 04:03:27;;;;;;;301.50;89.68;;;;;;;13.93;100.00;101164.53;5052005;28;20147;-71
2021/09/15 04:05:53;;;;;;;291.65;90.35;;;;;;;13.93;100.00;101157.34;5051377;28;20462;-71
2021/09/15 04:08:18;;;;;;;258.83;84.18;;;;;;;13.90;100.00;101162.16;5052007;28;20033;-71
2021/09/15 04:10:43;;;;;;;268.88;83.53;;;;;;;13.87;100.00;101163.28;5051978;28;20178;-71
2021/09/15 04:13:09;;;;;;;256.25;81.32;;;;;;;13.81;100.00;101155.88;5051921;28;20087;-71
2021/09/15 04:15:34;;;;;;;274.15;82.82;;;;;;;13.77;100.00;101165.19;5052082;28;20032;-71
2021/09/15 04:17:59;;;;;;;300.38;88.65;;;;;;;13.78;100.00;101168.69;5051655;28;20025;-70
2021/09/15 04:20:25;;;;;;;287.83;86.25;;;;;;;13.77;100.00;101164.38;5051900;28;20076;-70
2021/09/15 04:22:50;;;;;;;307.17;90.90;;;;;;;13.77;100.00;101167.03;5051153;28;20037;-71
2021/09/15 04:33:28;;;;;;;291.17;87.00;;;;;;;13.96;100.00;101153.53;5052240;28;20103;-72
2021/09/15 04:35:54;;;;;;;304.65;89.47;;;;;;;14.01;100.00;101153.88;5051678;28;20408;-72
2021/09/15 04:38:19;;;;;;;308.75;92.65;;;;;;;14.11;100.00;101153.81;5051825;28;20057;-72
2021/09/15 04:40:45;;;;;;;309.95;90.93;;;;;;;14.16;100.00;101156.03;5052054;28;20038;-72
2021/09/15 04:43:10;;;;;;;330.40;94.65;;;;;;;14.18;100.00;101154.88;5051002;28;20046;-72
2021/09/15 04:45:36;;;;;;;319.95;91.82;;;;;;;14.20;100.00;101152.88;5052112;28;20465;-71
2021/09/15 04:48:03;;;;;;;314.90;92.20;;;;;;;14.22;100.00;101155.41;5051163;28;20072;-72
2021/09/15 04:50:28;;;;;;;327.85;93.95;;;;;;;14.24;100.00;101161.41;5051962;28;20029;-71
2021/09/15 04:52:54;;;;;;;322.52;92.38;;;;;;;14.28;100.00;101154.78;5050991;28;20044;-73
2021/09/15 04:55:19;;;;;;;311.33;91.85;;;;;;;14.31;100.00;101158.97;5051848;28;20120;-73
2021/09/15 04:57:45;;;;;;;327.50;92.28;;;;;;;14.39;100.00;101156.34;5052060;28;20390;-73
2021/09/15 05:00:10;;;;;;;347.83;99.18;;;;;;;14.46;100.00;101152.91;5052258;28;20116;-73
2021/09/15 05:02:36;;;;;;;358.35;100.45;;;;;;;14.55;100.00;101155.63;5055055;28;20068;-72
2021/09/15 05:05:01;;;;;;;367.17;97.43;;;;;;;14.62;100.00;101152.19;5053460;28;20091;-73
2021/09/15 05:07:26;;;;;;;379.55;100.97;;;;;;;14.69;100.00;101154.22;5054341;28;20477;-73
2021/09/15 05:09:52;;;;;;;370.70;100.07;;;;;;;14.75;100.00;101145.56;5055214;28;20446;-72
2021/09/15 05:12:17;;;;;;;356.48;95.70;;;;;;;14.78;100.00;101151.44;5055301;28;20501;-72
2021/09/15 05:14:43;;;;;;;374.55;98.07;;;;;;;14.80;100.00;101149.44;5053975;28;20033;-72
2021/09/15 05:17:08;;;;;;;363.58;96.35;;;;;;;14.81;100.00;101150.31;5054565;28;20036;-73
2021/09/15 05:19:33;;;;;;;349.02;91.30;;;;;;;14.79;100.00;101163.00;5055089;28;20118;-73
2021/09/15 05:21:59;;;;;;;311.30;84.80;;;;;;;14.74;100.00;101159.97;5052987;28;20057;-73
2021/09/15 05:24:24;;;;;;;382.35;95.28;;;;;;;14.72;100.00;101159.25;5053913;28;20385;-72
2021/09/15 05:26:49;;;;;;;403.45;100.30;;;;;;;14.72;100.00;101168.16;5054952;28;20036;-72
2021/09/15 05:29:15;;;;;;;431.45;102.47;;;;;;;14.76;100.00;101172.22;5053027;28;20140;-73
2021/09/15 05:31:40;;;;;;;432.50;100.88;;;;;;;14.83;100.00;101171.56;5053586;28;20449;-72
2021/09/15 05:34:05;;;;;;;421.38;98.60;;;;;;;14.81;100.00;101161.84;5054235;28;20469;-73
2021/09/15 05:36:31;;;;;;;415.38;98.50;;;;;;;14.84;100.00;101158.03;5054537;28;20036;-73
2021/09/15 05:38:56;;;;;;;441.85;103.28;;;;;;;14.86;100.00;101169.41;5054149;28;20029;-74
2021/09/15 05:41:21;;;;;;;447.45;102.85;;;;;;;14.91;100.00;101164.44;5054698;28;20039;-73
2021/09/15 05:43:47;;;;;;;468.63;106.30;;;;;;;14.96;100.00;101161.25;5054359;28;20044;-73
2021/09/15 05:46:12;;;;;;;421.33;97.28;;;;;;;14.95;100.00;101167.63;5053937;28;20043;-73
2021/09/15 05:48:37;;;;;;;414.83;94.53;;;;;;;14.91;100.00;101164.44;5054466;28;20037;-73
2021/09/15 05:51:03;;;;;;;400.50;94.32;;;;;;;14.90;100.00;101176.13;5053947;28;20029;-73
2021/09/15 05:53:28;;;;;;;383.30;91.68;;;;;;;14.90;100.00;101175.28;5054613;28;20064;-73
2021/09/15 05:55:54;;;;;;;398.95;93.25;;;;;;;14.89;100.00;101185.16;5054233;28;20029;-73
2021/09/15 05:58:20;;;;;;;410.38;94.15;;;;;;;14.91;100.00;101180.50;5053641;28;20043;-73
2021/09/15 06:00:46;;;;;;;418.05;96.53;;;;;;;14.94;100.00;101192.72;5054258;28;20052;-73
2021/09/15 06:03:11;;;;;;;334.17;86.53;;;;;;;14.98;100.00;101186.03;5052128;28;20067;-73
2021/09/15 06:05:37;;;;;;;453.10;103.45;;;;;;;15.05;100.00;101184.41;5054318;28;20029;-73
2021/09/15 06:08:02;;;;;;;462.38;106.50;;;;;;;15.16;100.00;101184.13;5053642;28;20131;-73
2021/09/15 06:10:27;;;;;;;420.23;99.57;;;;;;;15.28;100.00;101194.56;5054979;28;20501;-73
2021/09/15 06:12:53;;;;;;;331.10;87.63;;;;;;;15.34;100.00;101189.38;5054520;28;20481;-72
2021/09/15 06:15:18;;;;;;;416.58;100.93;;;;;;;15.45;100.00;101192.75;5056528;28;20127;-73
2021/09/15 06:17:44;;;;;;;408.33;94.82;;;;;;;15.54;100.00;101194.50;5057744;28;20504;-72
2021/09/15 06:20:09;;;;;;;339.13;89.47;;;;;;;15.63;100.00;101195.34;5056212;28;20493;-72
2021/09/15 06:22:35;;;;;;;361.48;90.45;;;;;;;15.71;100.00;101194.53;5053551;28;20037;-73
2021/09/15 06:25:01;;;;;;;325.80;86.53;;;;;;;15.78;100.00;101198.25;5054148;28;20029;-75
2021/09/15 06:27:26;;;;;;;261.20;77.03;;;;;;;15.89;100.00;101191.75;5054362;28;20384;-72
2021/09/15 06:29:51;;;;;;;267.80;76.10;;;;;;;15.98;100.00;101190.75;5054227;28;20535;-73
2021/09/15 06:32:21;;;;;;;213.43;65.40;;;;;;;16.06;100.00;101195.28;5053195;28;20037;-73
2021/09/15 06:34:48;;;;;;;224.00;69.35;;;;;;;16.31;100.00;101196.13;5053961;28;20032;-71
2021/09/15 06:37:15;;;;;;;153.40;57.88;;;;;;;16.55;100.00;101203.34;5053130;28;20042;-74
2021/09/15 06:39:41;;;;;;;124.45;51.70;;;;;;;16.53;100.00;101198.13;5053667;28;20029;-72
2021/09/15 06:42:06;;;;;;;87.10;42.65;;;;;;;16.49;100.00;101199.47;5052721;28;20041;-72
2021/09/15 06:44:32;;;;;;;55.75;32.92;;;;;;;16.43;100.00;101207.38;5053767;28;20402;-72
2021/09/15 06:46:58;;;;;;;47.20;30.27;;;;;;;16.52;100.00;101201.00;5053446;28;20037;-71
2021/09/15 06:49:23;;;;;;;40.70;27.13;;;;;;;16.60;97.86;101210.88;5052848;28;20377;-72
2021/09/15 06:51:49;;;;;;;41.90;26.88;;;;;;;16.71;97.21;101214.06;5053536;28;20158;-72
2021/09/15 06:54:14;;;;;;;30.50;21.73;;;;;;;16.81;95.29;101215.72;5052904;28;20025;-73
2021/09/15 06:56:39;;;;;;;35.58;21.20;;;;;;;16.88;94.49;101219.44;5053281;28;20040;-72
2021/09/15 06:59:05;;;;;;;26.95;17.73;;;;;;;16.89;92.74;101219.25;5051364;28;20075;-73
2021/09/15 07:01:30;;;;;;;23.92;17.65;;;;;;;16.87;92.19;101223.97;5052910;28;20040;-71
2021/09/15 07:03:55;;;;;;;19.48;15.40;;;;;;;16.82;91.84;101223.59;5052655;28;20057;-73
2021/09/15 07:06:21;;;;;;;19.77;13.38;;;;;;;16.81;90.87;101230.00;5052452;28;20025;-72
2021/09/15 07:08:50;;;;;;;15.70;10.65;;;;;;;16.73;88.57;101221.94;5052971;28;20037;-72
2021/09/15 07:11:15;;;;;;;11.88;9.43;;;;;;;16.68;88.89;101221.63;5051177;28;20029;-72
2021/09/15 07:13:40;;;;;;;12.30;9.43;;;;;;;16.69;90.00;101234.03;5052995;28;20040;-71
2021/09/15 07:16:06;;;;;;;14.98;8.95;;;;;;;16.67;87.88;101228.84;5052347;28;20033;-73
2021/09/15 07:18:31;;;;;;;12.60;7.85;;;;;;;16.72;87.92;101231.88;5052686;28;20078;-72
2021/09/15 07:20:56;;;;;;;10.43;8.40;;;;;;;16.74;88.46;101235.22;5052887;28;20167;-72
2021/09/15 07:23:22;;;;;;;12.43;8.02;;;;;;;16.81;88.77;101239.91;5051762;28;20461;-72
2021/09/15 07:25:47;;;;;;;11.90;6.60;;;;;;;16.82;88.24;101239.72;5051601;28;20396;-72
2021/09/15 07:28:13;;;;;;;8.38;6.78;;;;;;;16.82;86.63;101237.03;5052167;28;20457;-72
2021/09/15 07:30:38;;;;;;;6.70;5.78;;;;;;;16.80;85.40;101225.63;5052870;28;20025;-72
2021/09/15 07:33:03;;;;;;;7.63;5.78;;;;;;;16.74;85.13;101218.25;5052845;28;20389;-72
2021/09/15 07:35:29;;;;;;;7.65;6.25;;;;;;;16.68;86.40;101224.31;5051847;28;20029;-72
2021/09/15 07:37:54;;;;;;;9.00;6.95;;;;;;;16.62;86.44;101230.38;5052583;28;20044;-72
2021/09/15 07:40:19;;;;;;;10.07;7.90;;;;;;;16.58;88.26;101224.47;5052062;28;20588;-72
2021/09/15 07:42:45;;;;;;;13.48;7.90;;;;;;;16.53;88.43;101224.16;5052469;28;20047;-72
2021/09/15 07:45:12;;;;;;;9.05;7.30;;;;;;;16.50;87.94;101222.66;5051987;28;20106;-72
2021/09/15 07:47:39;;;;;;;12.02;6.78;;;;;;;16.47;87.19;101219.47;5052431;28;20037;-72
2021/09/15 07:50:05;;;;;;;9.30;6.38;;;;;;;16.48;87.11;101221.13;5052467;28;20029;-72
2021/09/15 07:52:30;;;;;;;6.60;5.40;;;;;;;16.54;86.03;101218.63;5051764;28;20041;-72
2021/09/15 07:54:56;;;;;;;9.43;4.30;;;;;;;16.63;86.04;101221.28;5052192;28;20529;-71
2021/09/15 07:57:21;;;;;;;7.57;4.53;;;;;;;16.77;84.55;101217.09;5051559;28;20123;-72
2021/09/15 07:59:47;;;;;;;10.13;4.60;;;;;;;16.87;85.09;101210.53;5052521;28;20037;-71
2021/09/15 08:02:12;;;;;;;7.10;4.43;;;;;;;16.94;83.42;101204.47;5051564;28;20037;-72
2021/09/15 08:04:37;;;;;;;6.50;4.10;;;;;;;17.05;83.84;101204.13;5052247;28;20080;-72
2021/09/15 08:07:03;;;;;;;10.38;4.78;;;;;;;17.09;83.72;101206.28;5052297;28;20428;-72
2021/09/15 08:09:28;;;;;;;12.07;4.82;;;;;;;17.06;85.42;101205.78;5051314;28;20064;-72
2021/09/15 08:11:54;;;;;;;8.52;4.90;;;;;;;16.99;84.27;101202.09;5052143;28;20528;-71
2021/09/15 08:14:19;;;;;;;11.77;6.03;;;;;;;16.97;84.91;101198.75;5051444;28;20065;-72
2021/09/15 08:16:44;;;;;;;10.73;5.40;;;;;;;16.94;84.98;101197.25;5050937;28;20040;-72
2021/09/15 08:19:10;;;;;;;12.45;4.88;;;;;;;16.87;85.19;101191.72;5052147;28;20029;-72
2021/09/15 08:21:35;;;;;;;9.00;4.60;;;;;;;16.85;83.82;101191.00;5051528;28;20036;-73
2021/09/15 08:24:01;;;;;;;10.93;4.88;;;;;;;16.81;84.36;101194.22;5052154;28;20453;-72
2021/09/15 08:26:27;;;;;;;6.90;4.35;;;;;;;16.82;83.97;101195.91;5051598;28;20033;-73
2021/09/15 08:28:52;;;;;;;8.88;3.95;;;;;;;16.84;83.85;101197.41;5051670;28;20033;-73
2021/09/15 08:31:17;;;;;;;10.15;3.30;;;;;;;16.95;82.35;101195.41;5051521;28;20040;-73
2021/09/15 08:33:43;;;;;;;7.00;3.53;;;;;;;17.03;82.78;101203.44;5052489;28;20033;-72
2021/09/15 08:36:08;;;;;;;8.55;3.00;;;;;;;17.14;81.70;101200.38;5053539;28;20037;-73
2021/09/15 08:38:33;;;;;;;7.72;2.08;;;;;;;17.18;81.82;101203.56;5055074;28;20033;-72
2021/09/15 08:40:59;;;;;;;6.72;2.03;;;;;;;17.24;80.80;101208.22;5056168;28;20428;-73
2021/09/15 08:43:25;;;;;;;6.57;2.38;;;;;;;17.24;81.17;101213.59;5055216;28;20434;-73
2021/09/15 08:45:50;;;;;;;6.43;1.98;;;;;;;17.21;81.96;101208.59;5055850;28;20036;-73
2021/09/15 08:48:18;;;;;;;7.13;1.55;;;;;;;17.20;80.53;101212.31;5055089;28;20033;-73
2021/09/15 08:50:46;;;;;;;5.72;1.63;;;;;;;17.39;80.98;101216.41;5055964;28;20130;-73
2021/09/15 08:53:12;;;;;;;6.28;1.67;;;;;;;17.56;79.92;101215.31;5055567;28;20029;-72
2021/09/15 08:55:37;;;;;;;4.03;1.33;;;;;;;17.67;79.96;101226.72;5054857;28;20458;-72
2021/09/15 08:58:03;;;;;;;7.03;1.67;;;;;;;17.78;78.37;101218.25;5055354;28;20033;-72
2021/09/15 09:00:28;;;;;;;6.05;1.60;;;;;;;17.93;77.62;101232.63;5054928;28;20465;-73
2021/09/15 09:02:54;;;;;;;4.85;2.03;;;;;;;17.95;79.11;101225.22;5055281;28;20064;-73
2021/09/15 09:05:19;;;;;;;5.50;2.05;;;;;;;17.88;79.12;101220.69;5054789;28;20153;-73
2021/09/15 09:07:44;;;;;;;4.85;1.52;;;;;;;17.94;78.15;101220.00;5055259;28;20036;-73
2021/09/15 09:10:14;;;;;;;5.68;1.50;;;;;;;17.96;78.75;101226.06;5055274;28;20121;-73
2021/09/15 09:12:42;;;;;;;5.43;1.85;;;;;;;17.97;77.99;101231.28;5054531;28;20086;-73
2021/09/15 09:15:18;;;;;;;5.15;1.52;;;;;;;17.99;77.64;101231.09;5055127;28;20032;-72
2021/09/15 09:17:44;;;;;;;4.70;1.90;;;;;;;17.94;78.74;101228.94;5055098;28;20525;-71
2021/09/15 09:20:16;;;;;;;4.15;1.65;;;;;;;17.86;78.97;101228.94;5054823;28;20020;-71
2021/09/15 09:23:06;;;;;;;14.35;2.25;;;;;;;17.78;77.60;101232.53;5054431;28;20112;-71
2021/09/15 09:25:57;;;;;;;5.40;1.50;;;;;;;17.81;78.23;101234.03;5052982;28;20039;-71
2021/09/15 09:28:31;;;;;;;9.85;1.60;;;;;;;17.82;78.68;101226.78;5054120;28;20064;-72
2021/09/15 09:30:59;;;;;;;6.93;1.77;;;;;;;17.86;79.63;101233.50;5054526;28;20461;-71
2021/09/15 09:33:24;;;;;;;14.27;2.13;;;;;;;17.96;77.65;101234.97;5054170;28;20028;-71
2021/09/15 09:35:58;;;;;;;10.02;1.98;;;;;;;18.01;77.58;101230.91;5054896;28;20025;-71
2021/09/15 09:38:30;;;;;;;6.72;1.77;;;;;;;18.10;77.53;101246.00;5054191;28;20104;-72
2021/09/15 09:41:06;;;;;;;7.63;2.40;;;;;;;18.01;78.27;101241.69;5054793;28;20043;-71
2021/09/15 09:43:37;;;;;;;12.50;2.30;;;;;;;17.89;78.82;101241.22;5054003;28;20028;-71
2021/09/15 09:46:05;;;;;;;8.37;1.83;;;;;;;17.88;80.19;101236.84;5054193;28;20103;-71
2021/09/15 09:48:37;;;;;;;6.70;2.22;;;;;;;17.88;79.26;101247.59;5053737;28;20104;-70
2021/09/15 09:51:19;;;;;;;7.03;1.90;;;;;;;17.82;78.75;101249.16;5054503;28;20032;-71
2021/09/15 09:53:45;;;;;;;8.60;1.88;;;;;;;17.88;80.06;101248.44;5053632;28;20032;-71
2021/09/15 09:56:10;;;;;;;6.70;2.00;;;;;;;17.94;77.36;101252.31;5054568;28;20021;-70
2021/09/15 09:58:40;;;;;;;7.47;1.90;;;;;;;18.00;78.48;101254.28;5053535;28;20393;-71
2021/09/15 10:01:06;;;;;;;5.45;1.70;;;;;;;18.10;77.26;101262.16;5054052;28;20111;-73
2021/09/15 10:03:31;;;;;;;8.68;2.33;;;;;;;18.11;78.51;101247.69;5053411;28;20497;-71
2021/09/15 10:05:57;;;;;;;6.75;1.92;;;;;;;18.08;78.49;101261.50;5053332;28;20590;-71
2021/09/15 10:08:22;;;;;;;7.80;2.42;;;;;;;17.96;77.92;101261.06;5053946;28;20029;-71
2021/09/15 10:10:49;;;;;;;10.30;2.33;;;;;;;17.93;80.07;101262.25;5053578;28;20040;-71
2021/09/15 10:13:17;;;;;;;4.80;2.25;;;;;;;18.01;79.91;101261.34;5054334;28;20033;-71
2021/09/15 10:15:52;;;;;;;9.68;2.50;;;;;;;18.18;78.60;101264.78;5053518;28;20032;-71
2021/09/15 10:18:20;;;;;;;5.65;1.88;;;;;;;18.44;78.51;101260.91;5054301;28;20108;-70
2021/09/15 10:20:49;;;;;;;8.80;2.15;;;;;;;18.72;76.35;101252.22;5053417;28;20086;-71
2021/09/15 10:23:34;;;;;;;10.15;3.05;;;;;;;18.98;75.57;101243.75;5054169;28;20029;-71
2021/09/15 10:26:30;;;;;;;9.40;2.47;;;;;;;19.16;72.83;101246.09;5053964;28;20037;-72
2021/09/15 10:29:27;;;;;;;5.85;2.10;;;;;;;19.15;72.95;101244.41;5053897;28;20037;-71
2021/09/15 10:32:01;;;;;;;6.25;1.92;;;;;;;19.09;73.36;101243.28;5054049;28;20028;-71
2021/09/15 10:34:38;;;;;;;5.32;2.00;;;;;;;19.07;72.38;101247.19;5053675;28;20162;-71
2021/09/15 10:37:04;;;;;;;4.55;1.70;;;;;;;18.94;74.04;101248.66;5053799;28;20025;-71
2021/09/15 10:39:29;;;;;;;5.22;1.90;;;;;;;18.73;73.50;101248.50;5053148;28;20051;-72
2021/09/15 10:41:55;;;;;;;6.60;2.38;;;;;;;18.59;75.20;101258.25;5053535;28;20035;-72
2021/09/15 10:44:21;;;;;;;5.20;2.22;;;;;;;18.55;74.94;101260.44;5053505;28;20045;-71
2021/09/15 10:46:47;;;;;;;5.30;1.90;;;;;;;18.44;75.43;101255.50;5053134;28;20082;-71
2021/09/15 10:49:22;;;;;;;10.80;2.80;;;;;;;18.37;75.55;101251.84;5053512;28;20037;-71
2021/09/15 10:52:10;;;;;;;5.22;2.20;;;;;;;18.27;76.66;101262.84;5052865;28;20037;-71
2021/09/15 10:54:44;;;;;;;5.50;1.88;;;;;;;18.19;76.14;101269.16;5052670;28;20420;-71
2021/09/15 10:57:14;;;;;;;5.90;2.20;;;;;;;18.08;76.99;101269.56;5053053;28;20044;-72
2021/09/15 11:00:15;;;;;;;5.60;2.27;;;;;;;18.09;77.05;101273.91;5052433;28;20041;-72
2021/09/15 11:02:44;;;;;;;4.07;1.90;;;;;;;18.14;77.72;101272.38;5044887;28;20637;-72
2021/09/15 11:05:27;;;;;;;5.55;2.03;;;;;;;18.23;77.05;101278.56;5052837;28;20075;-72
2021/09/15 11:07:58;;;;;;;3.92;1.85;;;;;;;18.31;75.81;101269.56;5052433;28;20062;-72
2021/09/15 11:13:08;;;;;;;6.38;2.00;;;;;;;18.56;75.30;101277.47;5052879;28;20387;-73